sensor_id;sensor_type;location;lat;lon;timestamp;temperature;humidity
51500;DHT22;39101;53.478;6.158;2022-11-15T00:00:50;7.70;99.90
51500;DHT22;39101;53.478;6.158;2022-11-15T00:03:18;7.70;99.90
51500;DHT22;39101;53.478;6.158;2022-11-15T00:05:44;7.70;99.90
51500;DHT22;39101;53.478;6.158;2022-11-15T00:08:10;7.60;99.90
51500;DHT22;39101;53.478;6.158;2022-11-15T00:10:37;7.60;99.90
51500;DHT22;39101;53.478;6.158;2022-11-15T00:13:20;7.70;99.90
51500;DHT22;39101;53.478;6.158;2022-11-15T00:15:46;7.70;99.90
51500;DHT22;39101;53.478;6.158;2022-11-15T00:18:15;7.70;99.90
51500;DHT22;39101;53.478;6.158;2022-11-15T00:20:42;7.60;99.90
51500;DHT22;39101;53.478;6.158;2022-11-15T00:23:08;7.70;99.90
51500;DHT22;39101;53.478;6.158;2022-11-15T00:25:34;7.60;99.90
51500;DHT22;39101;53.478;6.158;2022-11-15T00:28:00;7.90;99.90
51500;DHT22;39101;53.478;6.158;2022-11-15T00:30:26;7.60;99.90
51500;DHT22;39101;53.478;6.158;2022-11-15T00:32:52;7.70;99.90
51500;DHT22;39101;53.478;6.158;2022-11-15T00:35:19;7.70;99.90
51500;DHT22;39101;53.478;6.158;2022-11-15T00:37:45;7.70;99.90
51500;DHT22;39101;53.478;6.158;2022-11-15T00:40:13;7.70;99.90
51500;DHT22;39101;53.478;6.158;2022-11-15T00:42:39;7.70;99.90
51500;DHT22;39101;53.478;6.158;2022-11-15T00:45:05;7.80;99.90
51500;DHT22;39101;53.478;6.158;2022-11-15T00:47:31;7.60;99.90
51500;DHT22;39101;53.478;6.158;2022-11-15T00:49:57;7.70;99.90
51500;DHT22;39101;53.478;6.158;2022-11-15T00:52:23;7.60;99.90
51500;DHT22;39101;53.478;6.158;2022-11-15T00:54:49;7.60;99.90
51500;DHT22;39101;53.478;6.158;2022-11-15T00:57:14;7.60;99.90
51500;DHT22;39101;53.478;6.158;2022-11-15T00:59:40;7.50;99.90
51500;DHT22;39101;53.478;6.158;2022-11-15T01:02:06;7.50;99.90
51500;DHT22;39101;53.478;6.158;2022-11-15T01:04:31;7.40;99.90
51500;DHT22;39101;53.478;6.158;2022-11-15T01:06:57;7.40;99.90
51500;DHT22;39101;53.478;6.158;2022-11-15T01:09:22;7.50;99.90
51500;DHT22;39101;53.478;6.158;2022-11-15T01:11:48;7.40;99.90
51500;DHT22;39101;53.478;6.158;2022-11-15T01:14:14;7.30;99.90
51500;DHT22;39101;53.478;6.158;2022-11-15T01:16:40;7.30;99.90
51500;DHT22;39101;53.478;6.158;2022-11-15T01:19:05;7.30;99.90
51500;DHT22;39101;53.478;6.158;2022-11-15T01:21:31;7.40;99.90
51500;DHT22;39101;53.478;6.158;2022-11-15T01:23:57;7.40;99.90
51500;DHT22;39101;53.478;6.158;2022-11-15T01:26:23;7.40;99.90
51500;DHT22;39101;53.478;6.158;2022-11-15T01:28:50;7.40;99.90
51500;DHT22;39101;53.478;6.158;2022-11-15T01:31:18;7.40;99.90
51500;DHT22;39101;53.478;6.158;2022-11-15T01:33:45;7.50;99.90
51500;DHT22;39101;53.478;6.158;2022-11-15T01:36:19;7.50;99.90
51500;DHT22;39101;53.478;6.158;2022-11-15T01:38:47;7.50;99.90
51500;DHT22;39101;53.478;6.158;2022-11-15T01:41:23;7.50;99.90
51500;DHT22;39101;53.478;6.158;2022-11-15T01:43:52;7.50;99.90
51500;DHT22;39101;53.478;6.158;2022-11-15T01:48:47;7.50;99.90
51500;DHT22;39101;53.478;6.158;2022-11-15T01:51:16;7.50;99.90
51500;DHT22;39101;53.478;6.158;2022-11-15T01:53:45;7.60;99.90
51500;DHT22;39101;53.478;6.158;2022-11-15T01:56:18;7.60;99.90
51500;DHT22;39101;53.478;6.158;2022-11-15T01:58:45;7.50;99.90
51500;DHT22;39101;53.478;6.158;2022-11-15T02:01:12;7.50;99.90
51500;DHT22;39101;53.478;6.158;2022-11-15T02:06:31;7.60;99.90
51500;DHT22;39101;53.478;6.158;2022-11-15T02:08:57;7.60;99.90
51500;DHT22;39101;53.478;6.158;2022-11-15T02:11:24;8.40;99.90
51500;DHT22;39101;53.478;6.158;2022-11-15T02:13:50;7.80;99.90
51500;DHT22;39101;53.478;6.158;2022-11-15T02:16:26;7.70;99.90
51500;DHT22;39101;53.478;6.158;2022-11-15T02:19:17;7.70;99.90
51500;DHT22;39101;53.478;6.158;2022-11-15T02:28:25;7.70;99.90
51500;DHT22;39101;53.478;6.158;2022-11-15T02:30:41;7.60;99.90
51500;DHT22;39101;53.478;6.158;2022-11-15T02:36:12;7.50;99.90
51500;DHT22;39101;53.478;6.158;2022-11-15T02:41:15;7.50;99.90
51500;DHT22;39101;53.478;6.158;2022-11-15T02:44:12;7.50;99.90
51500;DHT22;39101;53.478;6.158;2022-11-15T02:46:49;7.50;99.90
51500;DHT22;39101;53.478;6.158;2022-11-15T02:49:35;7.50;99.90
51500;DHT22;39101;53.478;6.158;2022-11-15T02:52:02;7.50;99.90
51500;DHT22;39101;53.478;6.158;2022-11-15T02:54:32;7.50;99.90
51500;DHT22;39101;53.478;6.158;2022-11-15T02:57:10;7.50;99.90
51500;DHT22;39101;53.478;6.158;2022-11-15T03:04:52;7.60;99.90
51500;DHT22;39101;53.478;6.158;2022-11-15T03:12:55;7.40;99.90
51500;DHT22;39101;53.478;6.158;2022-11-15T03:15:27;7.30;99.90
51500;DHT22;39101;53.478;6.158;2022-11-15T03:20:24;7.30;99.90
51500;DHT22;39101;53.478;6.158;2022-11-15T03:22:55;7.30;99.90
51500;DHT22;39101;53.478;6.158;2022-11-15T03:25:24;7.20;99.90
51500;DHT22;39101;53.478;6.158;2022-11-15T03:27:53;7.10;99.90
51500;DHT22;39101;53.478;6.158;2022-11-15T03:30:20;7.10;99.90
51500;DHT22;39101;53.478;6.158;2022-11-15T03:32:56;7.10;99.90
51500;DHT22;39101;53.478;6.158;2022-11-15T03:35:25;7.00;99.90
51500;DHT22;39101;53.478;6.158;2022-11-15T03:40:47;7.00;99.90
51500;DHT22;39101;53.478;6.158;2022-11-15T03:46:10;6.90;99.90
51500;DHT22;39101;53.478;6.158;2022-11-15T03:49:05;7.00;99.90
51500;DHT22;39101;53.478;6.158;2022-11-15T03:51:29;6.90;99.90
51500;DHT22;39101;53.478;6.158;2022-11-15T03:53:55;6.90;99.90
51500;DHT22;39101;53.478;6.158;2022-11-15T03:56:20;6.90;99.90
51500;DHT22;39101;53.478;6.158;2022-11-15T03:58:46;7.60;99.90
51500;DHT22;39101;53.478;6.158;2022-11-15T04:01:12;6.80;99.90
51500;DHT22;39101;53.478;6.158;2022-11-15T04:03:37;6.90;99.90
51500;DHT22;39101;53.478;6.158;2022-11-15T04:06:03;6.90;99.90
51500;DHT22;39101;53.478;6.158;2022-11-15T04:08:29;6.90;99.90
51500;DHT22;39101;53.478;6.158;2022-11-15T04:10:55;6.90;99.90
51500;DHT22;39101;53.478;6.158;2022-11-15T04:13:20;7.00;99.90
51500;DHT22;39101;53.478;6.158;2022-11-15T04:15:46;7.00;99.90
51500;DHT22;39101;53.478;6.158;2022-11-15T04:18:11;7.00;99.90
51500;DHT22;39101;53.478;6.158;2022-11-15T04:20:37;7.00;99.90
51500;DHT22;39101;53.478;6.158;2022-11-15T04:23:23;7.00;99.90
51500;DHT22;39101;53.478;6.158;2022-11-15T04:26:12;7.00;99.90
51500;DHT22;39101;53.478;6.158;2022-11-15T04:28:40;7.00;99.90
51500;DHT22;39101;53.478;6.158;2022-11-15T04:31:26;7.10;99.90
51500;DHT22;39101;53.478;6.158;2022-11-15T04:33:52;7.00;99.90
51500;DHT22;39101;53.478;6.158;2022-11-15T04:36:19;7.10;99.90
51500;DHT22;39101;53.478;6.158;2022-11-15T04:39:03;7.10;99.90
51500;DHT22;39101;53.478;6.158;2022-11-15T04:41:29;7.10;99.90
51500;DHT22;39101;53.478;6.158;2022-11-15T04:43:55;7.10;99.90
51500;DHT22;39101;53.478;6.158;2022-11-15T04:46:21;7.10;99.90
51500;DHT22;39101;53.478;6.158;2022-11-15T04:48:47;7.10;99.90
51500;DHT22;39101;53.478;6.158;2022-11-15T04:51:13;7.20;99.90
51500;DHT22;39101;53.478;6.158;2022-11-15T04:53:38;7.20;99.90
51500;DHT22;39101;53.478;6.158;2022-11-15T04:56:04;7.40;99.90
51500;DHT22;39101;53.478;6.158;2022-11-15T04:58:30;7.30;99.90
51500;DHT22;39101;53.478;6.158;2022-11-15T05:00:55;7.30;99.90
51500;DHT22;39101;53.478;6.158;2022-11-15T05:03:21;7.30;99.90
51500;DHT22;39101;53.478;6.158;2022-11-15T05:06:05;7.30;99.90
51500;DHT22;39101;53.478;6.158;2022-11-15T05:08:32;7.30;99.90
51500;DHT22;39101;53.478;6.158;2022-11-15T05:10:57;7.30;99.90
51500;DHT22;39101;53.478;6.158;2022-11-15T05:13:23;7.50;99.90
51500;DHT22;39101;53.478;6.158;2022-11-15T05:15:49;7.40;99.90
51500;DHT22;39101;53.478;6.158;2022-11-15T05:18:14;7.40;99.90
51500;DHT22;39101;53.478;6.158;2022-11-15T05:20:40;7.40;99.90
51500;DHT22;39101;53.478;6.158;2022-11-15T05:23:06;7.40;99.90
51500;DHT22;39101;53.478;6.158;2022-11-15T05:25:31;7.40;99.90
51500;DHT22;39101;53.478;6.158;2022-11-15T05:27:57;7.40;99.90
51500;DHT22;39101;53.478;6.158;2022-11-15T05:30:22;7.40;99.90
51500;DHT22;39101;53.478;6.158;2022-11-15T05:32:48;7.40;99.90
51500;DHT22;39101;53.478;6.158;2022-11-15T05:35:21;7.50;99.90
51500;DHT22;39101;53.478;6.158;2022-11-15T05:37:49;7.50;99.90
51500;DHT22;39101;53.478;6.158;2022-11-15T05:40:15;7.50;99.90
51500;DHT22;39101;53.478;6.158;2022-11-15T05:42:41;7.60;99.90
51500;DHT22;39101;53.478;6.158;2022-11-15T05:45:08;7.50;99.90
51500;DHT22;39101;53.478;6.158;2022-11-15T05:47:34;7.60;99.90
51500;DHT22;39101;53.478;6.158;2022-11-15T05:50:02;7.60;99.90
51500;DHT22;39101;53.478;6.158;2022-11-15T05:52:31;7.60;99.90
51500;DHT22;39101;53.478;6.158;2022-11-15T05:54:58;7.60;99.90
51500;DHT22;39101;53.478;6.158;2022-11-15T05:57:24;7.60;99.90
51500;DHT22;39101;53.478;6.158;2022-11-15T05:59:51;7.70;99.90
51500;DHT22;39101;53.478;6.158;2022-11-15T06:02:17;7.60;99.90
51500;DHT22;39101;53.478;6.158;2022-11-15T06:04:43;7.70;99.90
51500;DHT22;39101;53.478;6.158;2022-11-15T06:07:08;7.70;99.90
51500;DHT22;39101;53.478;6.158;2022-11-15T06:09:34;7.90;99.90
51500;DHT22;39101;53.478;6.158;2022-11-15T06:11:59;7.80;99.90
51500;DHT22;39101;53.478;6.158;2022-11-15T06:14:25;7.80;99.90
51500;DHT22;39101;53.478;6.158;2022-11-15T06:16:51;7.80;99.90
51500;DHT22;39101;53.478;6.158;2022-11-15T06:19:16;7.80;99.90
51500;DHT22;39101;53.478;6.158;2022-11-15T06:21:42;7.80;99.90
51500;DHT22;39101;53.478;6.158;2022-11-15T06:24:08;7.90;99.90
51500;DHT22;39101;53.478;6.158;2022-11-15T06:26:33;7.90;99.90
51500;DHT22;39101;53.478;6.158;2022-11-15T06:28:59;7.90;99.90
51500;DHT22;39101;53.478;6.158;2022-11-15T06:31:25;8.00;99.90
51500;DHT22;39101;53.478;6.158;2022-11-15T06:33:50;7.90;99.90
51500;DHT22;39101;53.478;6.158;2022-11-15T06:36:16;8.00;99.90
51500;DHT22;39101;53.478;6.158;2022-11-15T06:38:43;8.00;99.90
51500;DHT22;39101;53.478;6.158;2022-11-15T06:41:10;8.00;99.90
51500;DHT22;39101;53.478;6.158;2022-11-15T06:43:37;8.00;99.90
51500;DHT22;39101;53.478;6.158;2022-11-15T06:46:04;8.10;99.90
51500;DHT22;39101;53.478;6.158;2022-11-15T06:48:30;8.00;99.90
51500;DHT22;39101;53.478;6.158;2022-11-15T06:50:58;8.10;99.90
51500;DHT22;39101;53.478;6.158;2022-11-15T06:53:25;8.20;99.90
51500;DHT22;39101;53.478;6.158;2022-11-15T06:55:51;8.10;99.90
51500;DHT22;39101;53.478;6.158;2022-11-15T06:58:17;8.10;99.90
51500;DHT22;39101;53.478;6.158;2022-11-15T07:00:43;8.20;99.90
51500;DHT22;39101;53.478;6.158;2022-11-15T07:03:09;8.20;99.90
51500;DHT22;39101;53.478;6.158;2022-11-15T07:05:35;8.20;99.90
51500;DHT22;39101;53.478;6.158;2022-11-15T07:08:01;8.30;99.90
51500;DHT22;39101;53.478;6.158;2022-11-15T07:10:27;8.30;99.90
51500;DHT22;39101;53.478;6.158;2022-11-15T07:12:54;8.30;99.90
51500;DHT22;39101;53.478;6.158;2022-11-15T07:15:23;8.30;99.90
51500;DHT22;39101;53.478;6.158;2022-11-15T07:17:50;8.30;99.90
51500;DHT22;39101;53.478;6.158;2022-11-15T07:20:16;8.30;99.90
51500;DHT22;39101;53.478;6.158;2022-11-15T07:22:42;8.40;99.90
51500;DHT22;39101;53.478;6.158;2022-11-15T07:25:10;8.40;99.90
51500;DHT22;39101;53.478;6.158;2022-11-15T07:27:36;8.40;99.90
51500;DHT22;39101;53.478;6.158;2022-11-15T07:30:03;8.50;99.90
51500;DHT22;39101;53.478;6.158;2022-11-15T07:32:29;8.50;99.90
51500;DHT22;39101;53.478;6.158;2022-11-15T07:34:55;8.50;99.90
51500;DHT22;39101;53.478;6.158;2022-11-15T07:37:21;8.60;99.90
51500;DHT22;39101;53.478;6.158;2022-11-15T07:39:46;8.60;99.90
51500;DHT22;39101;53.478;6.158;2022-11-15T07:42:12;8.60;99.90
51500;DHT22;39101;53.478;6.158;2022-11-15T07:44:56;8.70;99.90
51500;DHT22;39101;53.478;6.158;2022-11-15T07:47:22;8.80;99.90
51500;DHT22;39101;53.478;6.158;2022-11-15T07:49:47;8.80;99.90
51500;DHT22;39101;53.478;6.158;2022-11-15T07:52:13;8.80;99.90
51500;DHT22;39101;53.478;6.158;2022-11-15T07:54:39;8.90;99.90
51500;DHT22;39101;53.478;6.158;2022-11-15T07:57:05;9.00;99.90
51500;DHT22;39101;53.478;6.158;2022-11-15T07:59:32;8.90;99.90
51500;DHT22;39101;53.478;6.158;2022-11-15T08:01:58;9.00;99.90
51500;DHT22;39101;53.478;6.158;2022-11-15T08:04:23;9.00;99.90
51500;DHT22;39101;53.478;6.158;2022-11-15T08:06:49;9.00;99.90
51500;DHT22;39101;53.478;6.158;2022-11-15T08:09:15;9.00;99.90
51500;DHT22;39101;53.478;6.158;2022-11-15T08:11:40;9.10;99.90
51500;DHT22;39101;53.478;6.158;2022-11-15T08:14:06;9.10;99.90
51500;DHT22;39101;53.478;6.158;2022-11-15T08:16:31;9.10;99.90
51500;DHT22;39101;53.478;6.158;2022-11-15T08:18:57;9.10;99.90
51500;DHT22;39101;53.478;6.158;2022-11-15T08:21:23;9.40;99.90
51500;DHT22;39101;53.478;6.158;2022-11-15T08:23:49;9.30;99.90
51500;DHT22;39101;53.478;6.158;2022-11-15T08:26:15;9.30;99.90
51500;DHT22;39101;53.478;6.158;2022-11-15T08:28:41;9.40;99.90
51500;DHT22;39101;53.478;6.158;2022-11-15T08:31:06;9.40;99.90
51500;DHT22;39101;53.478;6.158;2022-11-15T08:33:33;9.40;99.90
51500;DHT22;39101;53.478;6.158;2022-11-15T08:35:59;9.50;99.90
51500;DHT22;39101;53.478;6.158;2022-11-15T08:38:26;9.50;99.90
51500;DHT22;39101;53.478;6.158;2022-11-15T08:40:53;9.50;99.90
51500;DHT22;39101;53.478;6.158;2022-11-15T08:43:19;9.60;99.90
51500;DHT22;39101;53.478;6.158;2022-11-15T08:45:45;9.80;99.90
51500;DHT22;39101;53.478;6.158;2022-11-15T08:48:11;9.60;99.90
51500;DHT22;39101;53.478;6.158;2022-11-15T08:50:36;9.70;99.90
51500;DHT22;39101;53.478;6.158;2022-11-15T08:53:10;9.70;99.90
51500;DHT22;39101;53.478;6.158;2022-11-15T08:55:37;9.70;99.90
51500;DHT22;39101;53.478;6.158;2022-11-15T08:58:06;9.70;99.90
51500;DHT22;39101;53.478;6.158;2022-11-15T09:00:33;9.70;99.90
51500;DHT22;39101;53.478;6.158;2022-11-15T09:02:59;9.70;99.90
51500;DHT22;39101;53.478;6.158;2022-11-15T09:05:25;9.80;99.90
51500;DHT22;39101;53.478;6.158;2022-11-15T09:07:54;9.80;99.90
51500;DHT22;39101;53.478;6.158;2022-11-15T09:10:21;9.80;99.90
51500;DHT22;39101;53.478;6.158;2022-11-15T09:12:46;9.90;99.90
51500;DHT22;39101;53.478;6.158;2022-11-15T09:15:15;10.00;99.90
51500;DHT22;39101;53.478;6.158;2022-11-15T09:17:41;10.10;99.90
51500;DHT22;39101;53.478;6.158;2022-11-15T09:20:07;10.10;99.90
51500;DHT22;39101;53.478;6.158;2022-11-15T09:22:33;10.10;99.90
51500;DHT22;39101;53.478;6.158;2022-11-15T09:24:59;10.20;99.90
51500;DHT22;39101;53.478;6.158;2022-11-15T09:27:28;10.20;99.90
51500;DHT22;39101;53.478;6.158;2022-11-15T09:29:54;10.20;99.90
51500;DHT22;39101;53.478;6.158;2022-11-15T09:32:20;10.20;99.90
51500;DHT22;39101;53.478;6.158;2022-11-15T09:34:45;10.30;99.90
51500;DHT22;39101;53.478;6.158;2022-11-15T09:37:11;10.30;99.90
51500;DHT22;39101;53.478;6.158;2022-11-15T09:39:37;10.40;99.90
51500;DHT22;39101;53.478;6.158;2022-11-15T09:45:06;10.40;99.90
51500;DHT22;39101;53.478;6.158;2022-11-15T09:48:00;10.40;99.90
51500;DHT22;39101;53.478;6.158;2022-11-15T09:52:55;10.40;99.90
51500;DHT22;39101;53.478;6.158;2022-11-15T09:55:28;10.50;99.90
51500;DHT22;39101;53.478;6.158;2022-11-15T09:58:18;10.50;99.90
51500;DHT22;39101;53.478;6.158;2022-11-15T10:00:51;10.60;99.90
51500;DHT22;39101;53.478;6.158;2022-11-15T10:03:35;10.60;99.90
51500;DHT22;39101;53.478;6.158;2022-11-15T10:06:03;10.60;99.90
51500;DHT22;39101;53.478;6.158;2022-11-15T10:11:10;10.70;99.90
51500;DHT22;39101;53.478;6.158;2022-11-15T10:13:41;10.70;99.90
51500;DHT22;39101;53.478;6.158;2022-11-15T10:22:29;10.90;99.90
51500;DHT22;39101;53.478;6.158;2022-11-15T10:28:17;11.00;99.90
51500;DHT22;39101;53.478;6.158;2022-11-15T10:30:49;11.10;99.90
51500;DHT22;39101;53.478;6.158;2022-11-15T10:41:14;11.00;99.90
51500;DHT22;39101;53.478;6.158;2022-11-15T10:43:40;11.00;99.90
51500;DHT22;39101;53.478;6.158;2022-11-15T10:46:23;11.00;99.90
51500;DHT22;39101;53.478;6.158;2022-11-15T10:48:49;11.00;99.90
51500;DHT22;39101;53.478;6.158;2022-11-15T10:51:24;11.00;99.90
51500;DHT22;39101;53.478;6.158;2022-11-15T10:53:54;11.00;99.90
51500;DHT22;39101;53.478;6.158;2022-11-15T10:56:23;11.10;99.90
51500;DHT22;39101;53.478;6.158;2022-11-15T10:58:57;11.00;99.90
51500;DHT22;39101;53.478;6.158;2022-11-15T11:01:25;11.10;99.90
51500;DHT22;39101;53.478;6.158;2022-11-15T11:04:09;11.10;99.90
51500;DHT22;39101;53.478;6.158;2022-11-15T11:06:58;11.20;99.90
51500;DHT22;39101;53.478;6.158;2022-11-15T11:11:54;11.20;99.90
51500;DHT22;39101;53.478;6.158;2022-11-15T11:14:23;11.30;99.90
51500;DHT22;39101;53.478;6.158;2022-11-15T11:27:22;11.30;99.90
51500;DHT22;39101;53.478;6.158;2022-11-15T11:35:50;11.40;99.90
51500;DHT22;39101;53.478;6.158;2022-11-15T11:46:41;11.30;99.90
51500;DHT22;39101;53.478;6.158;2022-11-15T11:52:02;11.30;99.90
51500;DHT22;39101;53.478;6.158;2022-11-15T11:56:54;11.30;99.90
51500;DHT22;39101;53.478;6.158;2022-11-15T11:59:33;11.30;99.90
51500;DHT22;39101;53.478;6.158;2022-11-15T12:02:37;11.30;99.90
51500;DHT22;39101;53.478;6.158;2022-11-15T12:05:22;11.30;99.90
51500;DHT22;39101;53.478;6.158;2022-11-15T12:07:56;11.30;99.90
51500;DHT22;39101;53.478;6.158;2022-11-15T12:10:29;11.30;99.90
51500;DHT22;39101;53.478;6.158;2022-11-15T12:13:04;11.20;99.90
51500;DHT22;39101;53.478;6.158;2022-11-15T12:15:57;11.30;99.90
51500;DHT22;39101;53.478;6.158;2022-11-15T12:18:24;11.30;99.90
51500;DHT22;39101;53.478;6.158;2022-11-15T12:20:58;11.20;99.90
51500;DHT22;39101;53.478;6.158;2022-11-15T12:23:31;11.20;99.90
51500;DHT22;39101;53.478;6.158;2022-11-15T12:26:11;11.30;99.90
51500;DHT22;39101;53.478;6.158;2022-11-15T12:28:50;11.30;99.90
51500;DHT22;39101;53.478;6.158;2022-11-15T12:36:55;11.30;99.90
51500;DHT22;39101;53.478;6.158;2022-11-15T12:40:02;11.30;99.90
51500;DHT22;39101;53.478;6.158;2022-11-15T12:47:25;11.50;99.90
51500;DHT22;39101;53.478;6.158;2022-11-15T12:49:51;11.50;99.90
51500;DHT22;39101;53.478;6.158;2022-11-15T12:52:18;11.70;99.90
51500;DHT22;39101;53.478;6.158;2022-11-15T12:54:56;11.70;99.90
51500;DHT22;39101;53.478;6.158;2022-11-15T12:57:31;11.80;99.90
51500;DHT22;39101;53.478;6.158;2022-11-15T13:00:36;11.80;99.90
51500;DHT22;39101;53.478;6.158;2022-11-15T13:03:16;11.90;99.90
51500;DHT22;39101;53.478;6.158;2022-11-15T13:08:08;12.00;99.90
51500;DHT22;39101;53.478;6.158;2022-11-15T13:10:34;12.00;99.90
51500;DHT22;39101;53.478;6.158;2022-11-15T13:13:06;12.00;99.90
51500;DHT22;39101;53.478;6.158;2022-11-15T13:18:29;11.90;99.90
51500;DHT22;39101;53.478;6.158;2022-11-15T13:20:55;12.00;99.90
51500;DHT22;39101;53.478;6.158;2022-11-15T13:23:21;12.00;99.90
51500;DHT22;39101;53.478;6.158;2022-11-15T13:28:36;12.00;99.90
51500;DHT22;39101;53.478;6.158;2022-11-15T13:31:18;11.90;99.90
51500;DHT22;39101;53.478;6.158;2022-11-15T13:33:45;11.80;99.90
51500;DHT22;39101;53.478;6.158;2022-11-15T13:36:18;11.70;99.90
51500;DHT22;39101;53.478;6.158;2022-11-15T13:38:45;11.70;99.90
51500;DHT22;39101;53.478;6.158;2022-11-15T13:41:24;11.70;99.90
51500;DHT22;39101;53.478;6.158;2022-11-15T13:43:52;11.70;99.90
51500;DHT22;39101;53.478;6.158;2022-11-15T13:46:26;11.60;99.90
51500;DHT22;39101;53.478;6.158;2022-11-15T13:49:03;11.60;99.90
51500;DHT22;39101;53.478;6.158;2022-11-15T13:51:47;11.60;99.90
51500;DHT22;39101;53.478;6.158;2022-11-15T13:57:00;11.50;99.90
51500;DHT22;39101;53.478;6.158;2022-11-15T14:01:55;11.50;99.90
51500;DHT22;39101;53.478;6.158;2022-11-15T14:04:23;11.50;99.90
51500;DHT22;39101;53.478;6.158;2022-11-15T14:06:56;11.50;99.90
51500;DHT22;39101;53.478;6.158;2022-11-15T14:11:53;11.50;99.90
51500;DHT22;39101;53.478;6.158;2022-11-15T14:14:21;11.40;99.90
51500;DHT22;39101;53.478;6.158;2022-11-15T14:16:58;11.40;99.90
51500;DHT22;39101;53.478;6.158;2022-11-15T14:24:38;11.30;99.90
51500;DHT22;39101;53.478;6.158;2022-11-15T14:27:27;11.30;99.90
51500;DHT22;39101;53.478;6.158;2022-11-15T14:29:54;11.20;99.90
51500;DHT22;39101;53.478;6.158;2022-11-15T14:32:22;11.20;99.90
51500;DHT22;39101;53.478;6.158;2022-11-15T14:34:59;11.20;99.90
51500;DHT22;39101;53.478;6.158;2022-11-15T14:37:27;11.20;99.90
51500;DHT22;39101;53.478;6.158;2022-11-15T14:39:53;11.20;99.90
51500;DHT22;39101;53.478;6.158;2022-11-15T14:42:20;11.10;99.90
51500;DHT22;39101;53.478;6.158;2022-11-15T14:44:46;11.10;99.90
51500;DHT22;39101;53.478;6.158;2022-11-15T14:47:12;11.10;99.90
51500;DHT22;39101;53.478;6.158;2022-11-15T14:49:38;11.10;99.90
51500;DHT22;39101;53.478;6.158;2022-11-15T14:52:27;11.00;99.90
51500;DHT22;39101;53.478;6.158;2022-11-15T14:54:54;11.00;99.90
51500;DHT22;39101;53.478;6.158;2022-11-15T14:57:20;10.90;99.90
51500;DHT22;39101;53.478;6.158;2022-11-15T14:59:46;10.90;99.90
51500;DHT22;39101;53.478;6.158;2022-11-15T15:02:23;10.90;99.90
51500;DHT22;39101;53.478;6.158;2022-11-15T15:04:50;10.90;99.90
51500;DHT22;39101;53.478;6.158;2022-11-15T15:07:16;10.90;99.90
51500;DHT22;39101;53.478;6.158;2022-11-15T15:09:42;10.90;99.90
51500;DHT22;39101;53.478;6.158;2022-11-15T15:12:19;10.80;99.90
51500;DHT22;39101;53.478;6.158;2022-11-15T15:14:47;10.80;99.90
51500;DHT22;39101;53.478;6.158;2022-11-15T15:17:13;10.80;99.90
51500;DHT22;39101;53.478;6.158;2022-11-15T15:19:39;10.70;99.90
51500;DHT22;39101;53.478;6.158;2022-11-15T15:22:05;10.60;99.90
51500;DHT22;39101;53.478;6.158;2022-11-15T15:24:31;10.60;99.90
51500;DHT22;39101;53.478;6.158;2022-11-15T15:26:56;10.60;99.90
51500;DHT22;39101;53.478;6.158;2022-11-15T15:29:22;10.50;99.90
51500;DHT22;39101;53.478;6.158;2022-11-15T15:31:48;10.40;99.90
51500;DHT22;39101;53.478;6.158;2022-11-15T15:34:13;10.40;99.90
51500;DHT22;39101;53.478;6.158;2022-11-15T15:36:39;10.40;99.90
51500;DHT22;39101;53.478;6.158;2022-11-15T15:39:07;10.40;99.90
51500;DHT22;39101;53.478;6.158;2022-11-15T15:41:33;10.30;99.90
51500;DHT22;39101;53.478;6.158;2022-11-15T15:43:59;10.30;99.90
51500;DHT22;39101;53.478;6.158;2022-11-15T15:46:25;10.20;99.90
51500;DHT22;39101;53.478;6.158;2022-11-15T15:48:50;10.20;99.90
51500;DHT22;39101;53.478;6.158;2022-11-15T15:51:16;10.10;99.90
51500;DHT22;39101;53.478;6.158;2022-11-15T15:53:42;10.00;99.90
51500;DHT22;39101;53.478;6.158;2022-11-15T15:56:08;10.00;99.90
51500;DHT22;39101;53.478;6.158;2022-11-15T15:58:34;10.10;99.90
51500;DHT22;39101;53.478;6.158;2022-11-15T16:01:00;9.90;99.90
51500;DHT22;39101;53.478;6.158;2022-11-15T16:03:26;10.00;99.90
51500;DHT22;39101;53.478;6.158;2022-11-15T16:05:53;10.00;99.90
51500;DHT22;39101;53.478;6.158;2022-11-15T16:08:23;9.90;99.90
51500;DHT22;39101;53.478;6.158;2022-11-15T16:10:49;9.90;99.90
51500;DHT22;39101;53.478;6.158;2022-11-15T16:13:16;9.90;99.90
51500;DHT22;39101;53.478;6.158;2022-11-15T16:15:43;9.90;99.90
51500;DHT22;39101;53.478;6.158;2022-11-15T16:18:15;9.80;99.90
51500;DHT22;39101;53.478;6.158;2022-11-15T16:20:43;9.80;99.90
51500;DHT22;39101;53.478;6.158;2022-11-15T16:23:14;9.80;99.90
51500;DHT22;39101;53.478;6.158;2022-11-15T16:25:51;9.90;99.90
51500;DHT22;39101;53.478;6.158;2022-11-15T16:28:20;9.80;99.90
51500;DHT22;39101;53.478;6.158;2022-11-15T16:30:47;9.70;99.90
51500;DHT22;39101;53.478;6.158;2022-11-15T16:33:13;9.70;99.90
51500;DHT22;39101;53.478;6.158;2022-11-15T16:35:38;9.70;99.90
51500;DHT22;39101;53.478;6.158;2022-11-15T16:38:04;9.70;99.90
51500;DHT22;39101;53.478;6.158;2022-11-15T16:40:33;9.70;99.90
51500;DHT22;39101;53.478;6.158;2022-11-15T16:43:00;9.70;99.90
51500;DHT22;39101;53.478;6.158;2022-11-15T16:45:27;9.70;99.90
51500;DHT22;39101;53.478;6.158;2022-11-15T16:47:56;9.60;99.90
51500;DHT22;39101;53.478;6.158;2022-11-15T16:50:23;9.80;99.90
51500;DHT22;39101;53.478;6.158;2022-11-15T16:52:51;9.70;99.90
51500;DHT22;39101;53.478;6.158;2022-11-15T16:55:17;9.80;99.90
51500;DHT22;39101;53.478;6.158;2022-11-15T16:57:43;9.80;99.90
51500;DHT22;39101;53.478;6.158;2022-11-15T17:00:12;9.80;99.90
51500;DHT22;39101;53.478;6.158;2022-11-15T17:02:45;9.80;99.90
51500;DHT22;39101;53.478;6.158;2022-11-15T17:05:11;9.80;99.90
51500;DHT22;39101;53.478;6.158;2022-11-15T17:07:38;9.80;99.90
51500;DHT22;39101;53.478;6.158;2022-11-15T17:10:05;9.80;99.90
51500;DHT22;39101;53.478;6.158;2022-11-15T17:12:33;9.90;99.90
51500;DHT22;39101;53.478;6.158;2022-11-15T17:14:58;9.80;99.90
51500;DHT22;39101;53.478;6.158;2022-11-15T17:17:24;9.80;99.90
51500;DHT22;39101;53.478;6.158;2022-11-15T17:19:51;9.90;99.90
51500;DHT22;39101;53.478;6.158;2022-11-15T17:22:18;9.90;99.90
51500;DHT22;39101;53.478;6.158;2022-11-15T17:24:44;10.00;99.90
51500;DHT22;39101;53.478;6.158;2022-11-15T17:27:09;9.90;99.90
51500;DHT22;39101;53.478;6.158;2022-11-15T17:29:35;10.00;99.90
51500;DHT22;39101;53.478;6.158;2022-11-15T17:32:01;9.90;99.90
51500;DHT22;39101;53.478;6.158;2022-11-15T17:34:26;9.90;99.90
51500;DHT22;39101;53.478;6.158;2022-11-15T17:36:52;9.80;99.90
51500;DHT22;39101;53.478;6.158;2022-11-15T17:39:18;9.80;99.90
51500;DHT22;39101;53.478;6.158;2022-11-15T17:41:45;9.80;99.90
51500;DHT22;39101;53.478;6.158;2022-11-15T17:44:11;9.80;99.90
51500;DHT22;39101;53.478;6.158;2022-11-15T17:46:37;9.80;99.90
51500;DHT22;39101;53.478;6.158;2022-11-15T17:49:05;9.80;99.90
51500;DHT22;39101;53.478;6.158;2022-11-15T17:51:31;9.80;99.90
51500;DHT22;39101;53.478;6.158;2022-11-15T17:53:57;9.80;99.90
51500;DHT22;39101;53.478;6.158;2022-11-15T17:56:25;9.80;99.90